Flight Track Log - Related Links

Times and Time Zones

All times are in EDT time to prevent confusion due to time zone crossing. See the N225SB flight status page for this flight to view local times or setup timezone preferences in your user account.

Time Position Orientation Groundspeed Altitude Reporting Facility
EDT Latitude Longitude Course Direction KTS MPH feet Rate Location/Type
Wed 08:14:08 PM 41.9311 -72.7081 270° West 176 203 1,100  Level Boston Center
Wed 08:14:56 PM 41.9311 -72.7667 270° West 207 238 3,500 2,516 Climbing Boston Center
Wed 08:15:41 PM 41.9331 -72.8169 273° West 225 259 5,000 2,388 Climbing Boston Center
Wed 08:16:39 PM 41.9242 -72.9200 263° West 250 288 7,600 3,153 Climbing Boston Center
Wed 08:17:39 PM 41.9175 -73.0400 266° West 289 333 11,200 3,124 Climbing Boston Center
Wed 08:18:40 PM 41.8917 -73.1400 251° West 311 358 13,900 2,331 Climbing Boston Center
Wed 08:19:40 PM 41.8619 -73.2625 252° West 321 369 15,900 1,695 Climbing Boston Center
Wed 08:20:51 PM 41.8253 -73.3956 250° West 341 392 17,600 1,308 Climbing Boston Center
Wed 08:21:53 PM 41.7597 -73.5086 232° Southwest 349 402 18,800 1,329 Climbing Boston Center
Wed 08:23:29 PM 41.6203 -73.6433 216° Southwest 360 414 21,100 1,231 Climbing New York Center
Wed 08:24:29 PM 41.5433 -73.7175 216° Southwest 374 430 22,000 950 Climbing New York Center
Wed 08:25:29 PM 41.4494 -73.8075 216° Southwest 399 459 23,000 1,000 Climbing New York Center
Wed 08:26:29 PM 41.3597 -73.8944 216° Southwest 410 472 24,000 950 Climbing New York Center
Wed 08:27:29 PM 41.2636 -73.9839 215° Southwest 417 480 24,900 800 Climbing New York Center
Wed 08:28:29 PM 41.1675 -74.0731 215° Southwest 417 480 25,600 700 Climbing New York Center
Wed 08:29:29 PM 41.0850 -74.1900 227° Southwest 424 488 26,300 850 Climbing New York Center
Wed 08:30:29 PM 41.0064 -74.3097 229° Southwest 429 494 27,300 950 Climbing New York Center
Wed 08:31:29 PM 40.9319 -74.4350 232° Southwest 434 499 28,200 950 Climbing New York Center
Wed 08:32:29 PM 40.8553 -74.5542 230° Southwest 439 505 29,200 1,000 Climbing New York Center
Wed 08:33:29 PM 40.7803 -74.6761 231° Southwest 439 505 30,200 1,000 Climbing New York Center
Wed 08:34:29 PM 40.7075 -74.7953 231° Southwest 433 498 31,200 850 Climbing New York Center
Wed 08:35:29 PM 40.6325 -74.9167 231° Southwest 433 498 31,900 750 Climbing New York Center
Wed 08:36:29 PM 40.5575 -75.0350 230° Southwest 433 498 32,700 706 Climbing New York Center
Wed 08:41:09 PM 40.2200 -75.5750 230° Southwest 420 483 35,900 677 Climbing FlightAware ADS-B
Wed 08:41:39 PM 40.1850 -75.6310 231° Southwest 418 481 36,200 592 Climbing FlightAware ADS-B
Wed 08:42:20 PM 40.1350 -75.7130 231° Southwest 417 480 36,600 462 Climbing FlightAware ADS-B
Wed 08:43:10 PM 40.0780 -75.8030 230° Southwest 415 478 36,900 511 Climbing FlightAware ADS-B
Wed 08:43:54 PM 40.0270 -75.8850 231° Southwest 413 475 37,400 660 Climbing FlightAware ADS-B
Wed 08:44:50 PM 39.9640 -75.9860 231° Southwest 409 471 38,000 391 Climbing FlightAware ADS-B
Wed 08:45:26 PM 39.9280 -76.0440 231° Southwest 409 471 38,000  Level FlightAware ADS-B
Wed 08:46:02 PM 39.8910 -76.1030 231° Southwest 409 471 38,000  Level FlightAware ADS-B
Wed 08:46:38 PM 39.8550 -76.1620 232° Southwest 409 471 38,000  Level FlightAware ADS-B
Wed 08:47:15 PM 39.8170 -76.2220 231° Southwest 409 471 38,000  Level FlightAware ADS-B
Wed 08:47:51 PM 39.7810 -76.2800 231° Southwest 409 471 38,000  Level FlightAware ADS-B
Wed 08:48:27 PM 39.7450 -76.3390 232° Southwest 409 471 38,000  Level FlightAware ADS-B
Wed 08:49:03 PM 39.7080 -76.3970 230° Southwest 409 471 38,000  Level FlightAware ADS-B
Wed 08:49:39 PM 39.6720 -76.4560 232° Southwest 409 471 38,000  Level FlightAware ADS-B
Wed 08:50:15 PM 39.6350 -76.5140 230° Southwest 409 471 38,000  Level FlightAware ADS-B
Wed 08:50:52 PM 39.5980 -76.5740 231° Southwest 409 471 38,000  Level FlightAware ADS-B
Wed 08:51:28 PM 39.5610 -76.6330 231° Southwest 409 471 38,000  Level FlightAware ADS-B
Wed 08:52:04 PM 39.5250 -76.6910 231° Southwest 409 471 38,000  Level FlightAware ADS-B
Wed 08:52:40 PM 39.4880 -76.7490 230° Southwest 409 471 38,000  Level FlightAware ADS-B
Wed 08:53:17 PM 39.4510 -76.8090 231° Southwest 409 471 38,000  Level FlightAware ADS-B
Wed 08:53:53 PM 39.4140 -76.8680 231° Southwest 409 471 38,000 984 Level FlightAware ADS-B
Wed 08:55:19 PM 39.1906 -77.1903 231° Southwest 417 480 40,000 822 Climbing Washington Center
Wed 08:56:19 PM 39.1139 -77.3064 230° Southwest 422 486 40,000  Level Washington Center
Wed 08:57:21 PM 39.0369 -77.4222 229° Southwest 427 491 40,000  Level Washington Center
Wed 08:58:18 PM 38.9536 -77.5508 230° Southwest 432 497 40,000  Level Washington Center
Wed 08:59:19 PM 38.8853 -77.6531 229° Southwest 432 497 40,000  Level Washington Center
Wed 09:00:20 PM 38.7956 -77.7864 229° Southwest 441 507 40,000  Level Washington Center
Wed 09:01:18 PM 38.7203 -77.9014 230° Southwest 448 516 40,000  Level Washington Center
Wed 09:02:18 PM 38.6453 -78.0106 229° Southwest 438 504 40,000  Level Washington Center
Wed 09:03:18 PM 38.5678 -78.1275 230° Southwest 432 497 40,000  Level Washington Center
Wed 09:04:19 PM 38.4922 -78.2417 230° Southwest 432 497 40,000  Level Washington Center
Wed 09:05:20 PM 38.4144 -78.3581 230° Southwest 426 490 40,000  Level Washington Center
Wed 09:06:20 PM 38.3369 -78.4717 229° Southwest 426 490 40,000  Level Washington Center
Wed 09:07:19 PM 38.2742 -78.5644 229° Southwest 426 490 40,000  Level Washington Center
Wed 09:08:19 PM 38.1850 -78.7011 230° Southwest 426 490 40,000  Level Washington Center
Wed 09:09:20 PM 38.1069 -78.8167 229° Southwest 431 496 40,000  Level Washington Center
Wed 09:10:19 PM 38.0289 -78.9267 228° Southwest 431 496 40,000  Level Washington Center
Wed 09:11:19 PM 37.9506 -79.0442 230° Southwest 431 496 40,000  Level Washington Center
Wed 09:12:20 PM 37.8767 -79.1461 227° Southwest 436 502 40,000  Level Washington Center
Wed 09:13:18 PM 37.7983 -79.2553 228° Southwest 431 496 40,000  Level Washington Center
Wed 09:14:18 PM 37.7047 -79.3794 226° Southwest 431 496 40,000  Level Washington Center
Wed 09:15:18 PM 37.6325 -79.4833 229° Southwest 436 502 40,000  Level Washington Center
Wed 09:16:19 PM 37.5431 -79.6044 227° Southwest 436 502 40,000  Level Washington Center
Wed 09:17:20 PM 37.4708 -79.7028 227° Southwest 436 502 40,000  Level Washington Center
Wed 09:18:21 PM 37.3853 -79.8236 228° Southwest 456 525 40,000  Level Washington Center
Wed 09:19:18 PM 37.3042 -79.9314 227° Southwest 449 517 40,000  Level Washington Center
Wed 09:20:57 PM 37.1572 -80.1247 226° Southwest 426 490 40,000  Level Atlanta Center
Wed 09:21:57 PM 37.0833 -80.2247 227° Southwest 426 490 40,000  Level Atlanta Center
Wed 09:22:57 PM 37.0033 -80.3325 227° Southwest 431 496 40,000  Level Atlanta Center
Wed 09:23:57 PM 36.9192 -80.4456 227° Southwest 437 503 40,000  Level Atlanta Center
Wed 09:24:57 PM 36.8389 -80.5556 228° Southwest 431 496 40,000  Level Atlanta Center
Wed 09:25:57 PM 36.7667 -80.6597 229° Southwest 436 502 40,000  Level Atlanta Center
Wed 09:26:57 PM 36.6786 -80.7928 230° Southwest 426 490 40,000  Level Atlanta Center
Wed 09:27:57 PM 36.6000 -80.9047 229° Southwest 426 490 40,000  Level Atlanta Center
Wed 09:28:57 PM 36.5217 -81.0214 230° Southwest 433 498 40,000  Level Atlanta Center
Wed 09:29:57 PM 36.4433 -81.1381 230° Southwest 439 505 40,000  Level Atlanta Center
Wed 09:30:57 PM 36.3625 -81.2542 229° Southwest 439 505 40,000  Level Atlanta Center
Wed 09:31:57 PM 36.2858 -81.3678 230° Southwest 439 505 40,000  Level Atlanta Center
Wed 09:32:57 PM 36.2028 -81.4836 228° Southwest 439 505 40,000  Level Atlanta Center
Wed 09:33:57 PM 36.1236 -81.5992 230° Southwest 444 511 40,000  Level Atlanta Center
Wed 09:34:57 PM 36.0425 -81.7147 229° Southwest 444 511 40,000  Level Atlanta Center
Wed 09:35:57 PM 35.9592 -81.8325 229° Southwest 452 520 40,000  Level Atlanta Center
Wed 09:36:57 PM 35.8778 -81.9475 229° Southwest 452 520 40,000  Level Atlanta Center
Wed 09:37:57 PM 35.7942 -82.0622 228° Southwest 447 514 40,000  Level Atlanta Center
Wed 09:38:57 PM 35.7228 -82.1664 230° Southwest 447 514 40,000 -1,676 Level Atlanta Center
Wed 09:40:00 PM 35.6316 -82.2518 219° Southwest  Level FlightAware Approximate
Wed 09:47:00 PM 35.0736 -82.8662 221° Southwest  Level FlightAware Approximate
Wed 09:48:00 PM 34.9924 -82.9528 221° Southwest  Level FlightAware Approximate
Wed 09:49:00 PM 34.9110 -83.0390 219° Southwest  Level FlightAware Approximate
Wed 09:50:00 PM 34.8304 -83.1263 223° Southwest  Level FlightAware Approximate
Wed 09:51:00 PM 34.7512 -83.2153 223° Southwest  Level FlightAware Approximate
Wed 09:52:00 PM 34.6768 -83.3062 251° West  Level FlightAware Approximate
Wed 09:53:00 PM 34.6415 -83.4301 251° West  Level FlightAware Approximate
Wed 09:54:00 PM 34.6062 -83.5539 251° West  Level FlightAware Approximate
Wed 09:55:00 PM 34.5674 -83.6759 246° West  Level FlightAware Approximate
Wed 09:56:00 PM 34.5333 -83.7979 270° West  Level FlightAware Approximate
Wed 09:56:23 PM 34.3833 -84.0000 207° Southwest 303 349 9,100  Level Atlanta TRACON
Wed 09:57:00 PM 34.4905 -83.9178 246° West  Level FlightAware Approximate
Wed 09:57:23 PM 34.3167 -84.0667 220° Southwest 266 306 8,000  Level Atlanta TRACON
Wed 09:58:00 PM 34.4216 -84.0059 202° Southwest  Level FlightAware Approximate
Wed 09:58:29 PM 34.2500 -84.1000 202° Southwest 259 298 8,000  Level Atlanta TRACON
Wed 09:59:00 PM 34.3219 -84.0557 202° Southwest  Level FlightAware Approximate
Wed 09:59:29 PM 34.1833 -84.1500 212° Southwest 280 322 8,000  Level Atlanta TRACON
Wed 10:00:00 PM 34.2203 -84.0988 195° South  Level FlightAware Approximate
Wed 10:00:23 PM 34.1333 -84.2000 220° Southwest 291 335 7,100  Level Atlanta TRACON
Wed 10:01:00 PM 34.1243 -84.1578 207° Southwest  Level FlightAware Approximate
Wed 10:01:23 PM 34.0667 -84.2333 203° Southwest 254 292 6,000  Level Atlanta TRACON
Wed 10:02:29 PM 34.0000 -84.2833 212° Southwest 223 257 4,700 -952 Descending Atlanta TRACON
Wed 10:03:29 PM 33.9500 -84.3167 209° Southwest 203 234 4,000 -368 Descending Atlanta TRACON
Wed 10:04:23 PM 33.9167 -84.3500 220° Southwest 189 217 4,000 -294 Level Atlanta TRACON
Wed 10:05:11 PM 33.8833 -84.3667 203° Southwest 181 208 3,500 -667 Descending Atlanta TRACON
Wed 10:06:11 PM 33.8333 -84.4000 209° Southwest 169 194 2,800 -600 Descending Atlanta TRACON
Wed 10:07:11 PM 33.8000 -84.4167 203° Southwest 147 169 2,300 -571 Descending Atlanta TRACON
Wed 10:08:17 PM 33.7833 -84.4667 248° West 137 158 1,600 -636 Descending Atlanta TRACON
Wed 10:10:00 PM 33.7667 -84.5167 220° Southwest  Level FlightAware Approximate
Wed 10:17:00 PM 33.7791 -84.5214 220° Southwest  Level Estimated

Login

Don't have an account? Register now (free) for customized features, flight alerts, and more!